createdAt,value
2023-09-28T00:00:35.710Z,5.90
2023-09-28T00:03:05.318Z,6.47
2023-09-28T00:05:32.825Z,6.55
2023-09-28T00:08:01.735Z,6.50
2023-09-28T00:10:32.810Z,6.85
2023-09-28T00:13:00.736Z,7.15
2023-09-28T00:15:27.628Z,7.07
2023-09-28T00:17:56.240Z,7.03
2023-09-28T00:20:24.754Z,6.57
2023-09-28T00:22:53.110Z,7.00
2023-09-28T00:25:23.233Z,6.75
2023-09-28T00:27:54.295Z,7.35
2023-09-28T00:30:23.685Z,7.00
2023-09-28T00:32:53.552Z,6.55
2023-09-28T00:35:21.341Z,6.97
2023-09-28T00:37:50.583Z,6.88
2023-09-28T00:40:19.756Z,6.97
2023-09-28T00:42:49.676Z,7.85
2023-09-28T00:45:18.855Z,7.15
2023-09-28T00:47:48.481Z,7.25
2023-09-28T00:50:16.841Z,7.65
2023-09-28T00:52:47.310Z,7.47
2023-09-28T00:55:16.607Z,6.65
2023-09-28T00:57:45.651Z,6.95
2023-09-28T01:00:19.583Z,7.28
2023-09-28T01:02:52.637Z,6.85
2023-09-28T01:05:19.913Z,7.57
2023-09-28T01:07:48.037Z,7.53
2023-09-28T01:10:21.179Z,6.47
2023-09-28T01:12:49.910Z,7.88
2023-09-28T01:15:17.978Z,7.05
2023-09-28T01:17:46.522Z,7.05
2023-09-28T01:20:19.502Z,6.68
2023-09-28T01:22:51.194Z,7.95
2023-09-28T01:25:20.521Z,7.03
2023-09-28T01:27:48.842Z,6.57
2023-09-28T01:30:17.111Z,7.95
2023-09-28T01:32:45.387Z,7.30
2023-09-28T01:35:12.672Z,5.90
2023-09-28T01:37:52.549Z,6.07
2023-09-28T01:40:19.983Z,7.03
2023-09-28T01:42:47.868Z,6.57
2023-09-28T01:45:15.854Z,6.57
2023-09-28T01:47:43.815Z,8.25
2023-09-28T01:50:11.556Z,6.75
2023-09-28T01:52:39.515Z,6.38
2023-09-28T01:55:08.304Z,6.88
2023-09-28T01:57:36.086Z,8.05
2023-09-28T02:00:06.621Z,8.02
2023-09-28T02:02:35.641Z,6.93
2023-09-28T02:05:04.027Z,8.38
2023-09-28T02:07:36.498Z,7.82
2023-09-28T02:10:04.943Z,7.90
2023-09-28T02:12:34.131Z,7.75
2023-09-28T02:15:06.256Z,6.65
2023-09-28T02:17:34.094Z,8.07
2023-09-28T02:20:01.006Z,7.35
2023-09-28T02:22:28.829Z,7.07
2023-09-28T02:24:55.885Z,7.85
2023-09-28T02:27:23.673Z,6.95
2023-09-28T02:29:51.836Z,6.55
2023-09-28T02:32:19.665Z,6.53
2023-09-28T02:34:46.522Z,8.00
2023-09-28T02:37:14.899Z,6.55
2023-09-28T02:39:42.320Z,6.57
2023-09-28T02:42:10.542Z,7.68
2023-09-28T02:44:37.440Z,7.85
2023-09-28T02:47:07.358Z,7.28
2023-09-28T02:49:34.404Z,8.13
2023-09-28T02:52:03.073Z,7.03
2023-09-28T02:54:30.927Z,8.35
2023-09-28T02:56:58.982Z,7.57
2023-09-28T02:59:27.781Z,7.40
2023-09-28T03:01:56.331Z,7.00
2023-09-28T03:04:25.395Z,7.03
2023-09-28T03:06:53.678Z,6.75
2023-09-28T03:09:21.121Z,6.88
2023-09-28T03:11:50.235Z,7.20
2023-09-28T03:14:17.885Z,6.80
2023-09-28T03:16:45.750Z,7.07
2023-09-28T03:19:12.627Z,6.47
2023-09-28T03:21:43.578Z,7.10
2023-09-28T03:24:10.456Z,7.57
2023-09-28T03:26:39.167Z,8.52
2023-09-28T03:29:06.102Z,7.70
2023-09-28T03:31:36.442Z,7.95
2023-09-28T03:34:03.287Z,7.32
2023-09-28T03:36:33.368Z,6.53
2023-09-28T03:39:02.583Z,6.35
2023-09-28T03:41:32.112Z,7.18
2023-09-28T03:43:59.927Z,7.10
2023-09-28T03:46:28.374Z,6.93
2023-09-28T03:48:56.190Z,7.00
2023-09-28T03:51:24.300Z,7.22
2023-09-28T03:53:52.302Z,6.40
2023-09-28T03:56:22.587Z,6.60
2023-09-28T03:58:50.406Z,6.63
2023-09-28T04:01:18.465Z,7.25
2023-09-28T04:03:46.304Z,7.32
2023-09-28T04:06:14.271Z,6.82
2023-09-28T04:08:42.128Z,7.32
2023-09-28T04:11:10.026Z,6.30
2023-09-28T04:13:39.244Z,7.22
2023-09-28T04:16:07.091Z,6.65
2023-09-28T04:18:34.977Z,7.38
2023-09-28T04:21:02.924Z,7.03
2023-09-28T04:23:31.272Z,7.03
2023-09-28T04:25:59.114Z,7.05
2023-09-28T04:28:26.961Z,6.32
2023-09-28T04:30:56.083Z,6.20
2023-09-28T04:33:23.873Z,7.80
2023-09-28T04:35:51.743Z,7.97
2023-09-28T04:38:19.604Z,7.43
2023-09-28T04:40:47.467Z,6.45
2023-09-28T04:43:15.366Z,8.23
2023-09-28T04:45:43.244Z,8.05
2023-09-28T04:48:12.385Z,6.70
2023-09-28T04:50:40.496Z,6.72
2023-09-28T04:53:08.772Z,8.23
2023-09-28T04:55:36.570Z,8.07
2023-09-28T04:58:04.617Z,6.07
2023-09-28T05:00:33.935Z,6.97
2023-09-28T05:03:04.954Z,6.85
2023-09-28T05:05:34.619Z,7.68
2023-09-28T05:08:03.197Z,7.65
2023-09-28T05:10:31.175Z,7.72
2023-09-28T05:12:59.536Z,7.10
2023-09-28T05:15:27.385Z,7.97
2023-09-28T05:17:55.357Z,7.85
2023-09-28T05:20:25.085Z,6.63
2023-09-28T05:22:55.678Z,6.85
2023-09-28T05:25:23.590Z,6.38
2023-09-28T05:27:51.476Z,7.32
2023-09-28T05:30:19.530Z,7.65
2023-09-28T05:32:47.359Z,7.15
2023-09-28T05:35:16.273Z,8.63
2023-09-28T05:37:44.106Z,7.38
2023-09-28T05:40:14.008Z,7.20
2023-09-28T05:42:42.228Z,6.93
2023-09-28T05:45:11.372Z,7.57
2023-09-28T05:47:39.221Z,7.80
2023-09-28T05:50:08.475Z,9.05
2023-09-28T05:52:36.417Z,7.97
2023-09-28T05:55:04.775Z,6.40
2023-09-28T05:57:34.074Z,6.45
2023-09-28T06:00:08.145Z,7.97
2023-09-28T06:02:36.115Z,6.57
2023-09-28T06:05:05.696Z,9.50
2023-09-28T06:07:33.572Z,8.32
2023-09-28T06:10:01.407Z,8.80
2023-09-28T06:12:29.490Z,10.43
2023-09-28T06:14:59.854Z,9.02
2023-09-28T06:17:27.749Z,9.68
2023-09-28T06:19:58.288Z,10.43
2023-09-28T06:22:26.763Z,9.95
2023-09-28T06:24:55.937Z,9.27
2023-09-28T06:27:23.746Z,8.63
2023-09-28T06:29:54.517Z,10.15
2023-09-28T06:32:24.698Z,8.82
2023-09-28T06:34:52.756Z,8.68
2023-09-28T06:37:20.558Z,7.78
2023-09-28T06:39:48.458Z,6.38
2023-09-28T06:42:34.850Z,7.93
2023-09-28T06:45:04.902Z,7.55
2023-09-28T06:47:50.643Z,7.10
2023-09-28T06:50:21.978Z,8.40
2023-09-28T06:52:52.863Z,10.35
2023-09-28T06:55:20.832Z,10.57
2023-09-28T06:57:49.795Z,9.55
2023-09-28T07:00:18.854Z,7.45
2023-09-28T07:02:48.719Z,8.65
2023-09-28T07:05:17.712Z,8.23
2023-09-28T07:07:49.885Z,7.97
2023-09-28T07:10:18.911Z,8.45
2023-09-28T07:12:48.416Z,7.93
2023-09-28T07:15:16.264Z,9.35
2023-09-28T07:17:44.245Z,7.22
2023-09-28T07:20:16.316Z,8.45
2023-09-28T07:22:44.308Z,7.75
2023-09-28T07:25:12.224Z,6.60
2023-09-28T07:27:40.332Z,9.60
2023-09-28T07:30:09.816Z,10.35
2023-09-28T07:32:37.852Z,8.05
2023-09-28T07:35:06.792Z,7.68
2023-09-28T07:37:36.057Z,10.07
2023-09-28T07:40:05.672Z,8.07
2023-09-28T07:42:33.536Z,9.55
2023-09-28T07:45:01.334Z,9.95
2023-09-28T07:47:30.145Z,12.02
2023-09-28T07:49:58.173Z,12.65
2023-09-28T07:52:26.336Z,17.83
2023-09-28T07:54:55.896Z,16.83
2023-09-28T07:57:23.717Z,16.67
2023-09-28T07:59:51.513Z,13.55
2023-09-28T08:02:20.074Z,10.32
2023-09-28T08:04:50.714Z,11.35
2023-09-28T08:07:18.728Z,13.15
2023-09-28T08:09:46.678Z,15.40
2023-09-28T08:12:16.039Z,15.48
2023-09-28T08:14:43.887Z,14.05
2023-09-28T08:17:13.709Z,10.80
2023-09-28T08:19:41.594Z,8.07
2023-09-28T08:22:09.405Z,9.15
2023-09-28T08:24:37.237Z,8.75
2023-09-28T08:27:05.462Z,9.27
2023-09-28T08:29:35.881Z,8.27
2023-09-28T08:32:03.980Z,8.18
2023-09-28T08:34:38.742Z,7.90
2023-09-28T08:37:07.684Z,7.78
2023-09-28T08:39:37.208Z,8.50
2023-09-28T08:42:08.268Z,8.73
2023-09-28T08:44:39.701Z,7.78
2023-09-28T08:47:16.869Z,7.72
2023-09-28T08:49:46.513Z,8.00
2023-09-28T08:52:16.110Z,8.00
2023-09-28T08:54:44.289Z,7.50
2023-09-28T08:57:13.129Z,8.13
2023-09-28T08:59:43.616Z,7.13
2023-09-28T09:02:13.109Z,6.80
2023-09-28T09:04:41.088Z,6.90
2023-09-28T09:07:08.942Z,7.10
2023-09-28T09:09:38.564Z,5.78
2023-09-28T09:12:10.330Z,6.18
2023-09-28T09:14:39.061Z,6.10
2023-09-28T09:17:11.862Z,7.22
2023-09-28T09:19:41.930Z,6.70
2023-09-28T09:22:09.899Z,6.22
2023-09-28T09:24:54.976Z,6.38
2023-09-28T09:27:27.452Z,6.47
2023-09-28T09:32:28.025Z,6.50
2023-09-28T09:34:56.536Z,6.07
2023-09-28T09:37:24.676Z,6.28
2023-09-28T09:39:52.492Z,5.80
2023-09-28T09:42:29.739Z,6.35
2023-09-28T09:44:57.601Z,5.68
2023-09-28T09:47:28.404Z,5.65
2023-09-28T09:49:58.098Z,5.63
2023-09-28T09:52:27.970Z,5.75
2023-09-28T09:54:56.009Z,5.50
2023-09-28T09:57:25.996Z,5.13
2023-09-28T09:59:55.974Z,5.10
2023-09-28T10:02:26.611Z,5.50
2023-09-28T10:04:56.761Z,5.20
2023-09-28T10:07:46.560Z,5.00
2023-09-28T10:10:16.739Z,5.07
2023-09-28T10:12:44.796Z,4.95
2023-09-28T10:15:14.255Z,4.72
2023-09-28T10:17:43.062Z,4.53
2023-09-28T10:20:14.568Z,4.82
2023-09-28T10:22:42.801Z,5.07
2023-09-28T10:25:13.248Z,4.40
2023-09-28T10:27:41.639Z,4.22
2023-09-28T10:30:20.325Z,4.25
2023-09-28T10:32:48.692Z,5.00
2023-09-28T10:35:29.498Z,4.60
2023-09-28T10:38:28.726Z,4.25
2023-09-28T10:41:08.012Z,3.85
2023-09-28T10:43:37.777Z,4.03
2023-09-28T10:46:06.894Z,3.88
2023-09-28T10:48:40.945Z,4.68
2023-09-28T10:51:14.107Z,4.05
2023-09-28T10:53:42.550Z,4.05
2023-09-28T10:56:12.211Z,3.65
2023-09-28T10:58:42.126Z,3.78
2023-09-28T11:01:10.244Z,3.92
2023-09-28T11:03:39.990Z,4.55
2023-09-28T11:06:11.193Z,3.80
2023-09-28T11:08:41.714Z,4.17
2023-09-28T11:11:09.667Z,4.10
2023-09-28T11:13:37.576Z,3.20
2023-09-28T11:16:05.954Z,3.80
2023-09-28T11:18:33.878Z,3.65
2023-09-28T11:21:04.506Z,3.67
2023-09-28T11:23:32.435Z,3.47
2023-09-28T11:26:01.851Z,3.38
2023-09-28T11:28:30.864Z,3.83
2023-09-28T11:31:10.088Z,3.28
2023-09-28T11:33:38.533Z,3.97
2023-09-28T11:36:07.279Z,3.67
2023-09-28T11:38:35.659Z,3.60
2023-09-28T11:41:06.376Z,3.90
2023-09-28T11:43:35.833Z,3.25
2023-09-28T11:46:04.611Z,3.35
2023-09-28T11:48:32.478Z,3.10
2023-09-28T11:51:00.824Z,3.20
2023-09-28T11:53:28.643Z,3.20
2023-09-28T11:55:56.619Z,3.50
2023-09-28T11:58:27.055Z,3.60
2023-09-28T12:00:55.065Z,3.20
2023-09-28T12:03:23.061Z,3.38
2023-09-28T12:05:51.002Z,3.08
2023-09-28T12:08:19.144Z,3.60
2023-09-28T12:10:46.998Z,3.30
2023-09-28T12:13:14.887Z,3.38
2023-09-28T12:15:44.141Z,3.05
2023-09-28T12:18:12.184Z,2.97
2023-09-28T12:20:40.077Z,3.03
2023-09-28T12:23:08.016Z,3.10
2023-09-28T12:25:36.657Z,3.40
2023-09-28T12:28:04.740Z,3.20
2023-09-28T12:30:33.108Z,3.42
2023-09-28T12:33:03.147Z,3.50
2023-09-28T12:35:31.035Z,3.40
2023-09-28T12:37:59.013Z,3.03
2023-09-28T12:40:26.843Z,3.40
2023-09-28T12:42:54.658Z,3.22
2023-09-28T12:45:22.584Z,3.50
2023-09-28T12:47:50.510Z,3.35
2023-09-28T12:50:20.231Z,3.00
2023-09-28T12:52:49.147Z,3.35
2023-09-28T12:55:17.047Z,3.03
2023-09-28T12:57:45.209Z,2.85
2023-09-28T13:00:14.435Z,3.55
2023-09-28T13:02:44.374Z,3.17
2023-09-28T13:05:12.916Z,3.25
2023-09-28T13:07:42.365Z,2.90
2023-09-28T13:10:13.775Z,3.30
2023-09-28T13:12:42.775Z,2.90
2023-09-28T13:15:13.205Z,3.30
2023-09-28T13:17:41.374Z,3.60
2023-09-28T13:20:12.437Z,3.28
2023-09-28T13:22:41.794Z,2.78
2023-09-28T13:25:11.012Z,3.00
2023-09-28T13:27:38.850Z,3.08
2023-09-28T13:30:12.738Z,3.00
2023-09-28T13:32:40.806Z,3.08
2023-09-28T13:35:12.088Z,2.80
2023-09-28T13:37:40.303Z,2.90
2023-09-28T13:40:18.167Z,2.95
2023-09-28T13:42:46.269Z,2.85
2023-09-28T13:45:14.355Z,2.60
2023-09-28T13:47:43.335Z,3.17
2023-09-28T13:50:12.396Z,2.90
2023-09-28T13:52:40.383Z,2.65
2023-09-28T13:55:10.613Z,2.72
2023-09-28T13:57:40.564Z,2.75
2023-09-28T14:00:15.333Z,2.35
2023-09-28T14:02:43.832Z,2.25
2023-09-28T14:05:11.962Z,2.50
2023-09-28T14:07:39.770Z,2.55
2023-09-28T14:10:10.250Z,2.30
2023-09-28T14:12:38.090Z,2.00
2023-09-28T14:15:07.934Z,2.40
2023-09-28T14:17:38.744Z,2.63
2023-09-28T14:20:11.896Z,2.63
2023-09-28T14:22:40.722Z,2.90
2023-09-28T14:25:10.920Z,2.45
2023-09-28T14:27:38.799Z,2.47
2023-09-28T14:30:07.997Z,2.45
2023-09-28T14:32:36.606Z,2.67
2023-09-28T14:35:05.189Z,2.83
2023-09-28T14:37:33.663Z,2.45
2023-09-28T14:40:01.871Z,2.40
2023-09-28T14:42:32.898Z,2.70
2023-09-28T14:45:00.960Z,2.80
2023-09-28T14:47:29.327Z,2.35
2023-09-28T14:49:58.492Z,2.75
2023-09-28T14:52:26.310Z,2.70
2023-09-28T14:54:54.084Z,2.50
2023-09-28T14:57:21.847Z,2.60
2023-09-28T14:59:51.255Z,2.20
2023-09-28T15:02:19.194Z,2.50
2023-09-28T15:04:47.049Z,2.33
2023-09-28T15:07:14.814Z,2.60
2023-09-28T15:09:43.174Z,2.60
2023-09-28T15:12:11.015Z,2.42
2023-09-28T15:14:39.593Z,2.55
2023-09-28T15:17:08.800Z,2.38
2023-09-28T15:19:36.642Z,2.47
2023-09-28T15:22:04.829Z,2.55
2023-09-28T15:24:34.075Z,2.70
2023-09-28T15:27:01.980Z,2.58
2023-09-28T15:29:29.881Z,2.30
2023-09-28T15:31:58.103Z,2.25
2023-09-28T15:34:27.338Z,1.98
2023-09-28T15:36:55.212Z,2.38
2023-09-28T15:39:23.021Z,2.30
2023-09-28T15:41:50.933Z,2.42
2023-09-28T15:44:18.822Z,2.10
2023-09-28T15:46:47.125Z,2.35
2023-09-28T15:49:15.923Z,2.40
2023-09-28T15:51:45.242Z,2.22
2023-09-28T15:54:13.161Z,2.70
2023-09-28T15:56:41.031Z,2.03
2023-09-28T15:59:09.014Z,26.70
2023-09-28T16:01:38.651Z,3.30
2023-09-28T16:04:07.561Z,2.83
2023-09-28T16:06:35.533Z,2.88
2023-09-28T16:09:05.398Z,2.63
2023-09-28T16:11:33.331Z,2.72
2023-09-28T16:14:01.363Z,2.83
2023-09-28T16:16:29.548Z,2.40
2023-09-28T16:18:57.494Z,3.00
2023-09-28T16:21:25.379Z,2.70
2023-09-28T16:23:54.863Z,2.83
2023-09-28T16:26:25.271Z,2.78
2023-09-28T16:28:53.343Z,2.90
2023-09-28T16:31:21.163Z,2.40
2023-09-28T16:33:49.023Z,2.70
2023-09-28T16:36:16.845Z,3.10
2023-09-28T16:38:44.751Z,2.90
2023-09-28T16:41:12.666Z,2.65
2023-09-28T16:43:41.876Z,3.08
2023-09-28T16:46:09.739Z,2.92
2023-09-28T16:48:38.011Z,3.25
2023-09-28T16:51:05.897Z,2.75
2023-09-28T16:53:33.719Z,4.60
2023-09-28T16:56:01.618Z,6.68
2023-09-28T16:58:29.545Z,5.05
2023-09-28T17:00:59.267Z,4.50
2023-09-28T17:03:27.421Z,3.88
2023-09-28T17:05:55.329Z,3.50
2023-09-28T17:08:23.237Z,4.00
2023-09-28T17:10:52.221Z,3.25
2023-09-28T17:13:20.067Z,3.20
2023-09-28T17:15:49.720Z,2.63
2023-09-28T17:18:21.768Z,3.13
2023-09-28T17:20:50.541Z,3.33
2023-09-28T17:23:18.567Z,3.70
2023-09-28T17:25:46.665Z,3.17
2023-09-28T17:28:14.552Z,3.53
2023-09-28T17:30:42.487Z,3.17
2023-09-28T17:33:10.815Z,3.30
2023-09-28T17:35:40.082Z,3.22
2023-09-28T17:38:08.060Z,3.15
2023-09-28T17:40:35.937Z,2.97
2023-09-28T17:43:04.414Z,2.90
2023-09-28T17:45:33.743Z,3.35
2023-09-28T17:48:01.806Z,3.40
2023-09-28T17:50:29.762Z,3.35
2023-09-28T17:52:59.082Z,3.65
2023-09-28T17:55:26.865Z,3.47
2023-09-28T17:57:55.072Z,3.28
2023-09-28T18:00:23.194Z,3.05
2023-09-28T18:02:51.184Z,3.80
2023-09-28T18:05:19.111Z,3.90
2023-09-28T18:07:46.895Z,3.97
2023-09-28T18:10:17.069Z,3.72
2023-09-28T18:12:45.456Z,4.22
2023-09-28T18:15:14.320Z,4.03
2023-09-28T18:17:42.263Z,4.05
2023-09-28T18:20:10.703Z,4.20
2023-09-28T18:22:38.845Z,4.55
2023-09-28T18:25:09.016Z,4.90
2023-09-28T18:27:38.205Z,4.57
2023-09-28T18:30:09.797Z,4.57
2023-09-28T18:32:37.843Z,4.78
2023-09-28T18:35:07.709Z,4.80
2023-09-28T18:37:35.897Z,5.05
2023-09-28T18:40:03.791Z,5.10
2023-09-28T18:42:31.686Z,4.68
2023-09-28T18:45:01.360Z,5.15
2023-09-28T18:47:29.718Z,5.25
2023-09-28T18:49:58.405Z,5.25
2023-09-28T18:52:26.230Z,5.75
2023-09-28T18:54:54.077Z,5.47
2023-09-28T18:57:22.455Z,5.32
2023-09-28T18:59:50.757Z,5.10
2023-09-28T19:02:20.057Z,5.30
2023-09-28T19:04:48.020Z,5.45
2023-09-28T19:07:21.295Z,6.15
2023-09-28T19:09:49.282Z,5.20
2023-09-28T19:12:17.165Z,4.97
2023-09-28T19:14:45.208Z,5.32
2023-09-28T19:17:13.186Z,5.53
2023-09-28T19:19:42.541Z,5.32
2023-09-28T19:22:10.361Z,5.53
2023-09-28T19:24:38.452Z,6.45
2023-09-28T19:27:07.531Z,5.80
2023-09-28T19:29:35.413Z,7.05
2023-09-28T19:32:03.240Z,5.90
2023-09-28T19:34:31.095Z,5.60
2023-09-28T19:37:00.441Z,5.97
2023-09-28T19:39:30.046Z,6.18
2023-09-28T19:41:57.996Z,5.53
2023-09-28T19:44:26.612Z,5.15
2023-09-28T19:46:54.495Z,5.10
2023-09-28T19:49:22.947Z,5.43
2023-09-28T19:51:51.312Z,5.10
2023-09-28T19:54:20.453Z,5.00
2023-09-28T19:56:48.491Z,5.18
2023-09-28T19:59:16.872Z,5.18
2023-09-28T20:01:45.133Z,5.50
2023-09-28T20:04:13.012Z,5.43
2023-09-28T20:06:40.842Z,5.07
2023-09-28T20:09:08.707Z,5.45
2023-09-28T20:11:38.807Z,5.05
2023-09-28T20:14:06.650Z,5.40
2023-09-28T20:16:34.558Z,5.05
2023-09-28T20:19:02.443Z,5.25
2023-09-28T20:21:30.217Z,4.63
2023-09-28T20:23:58.614Z,5.00
2023-09-28T20:26:26.797Z,4.65
2023-09-28T20:28:56.077Z,5.07
2023-09-28T20:31:23.897Z,4.47
2023-09-28T20:33:53.057Z,4.72
2023-09-28T20:36:21.311Z,4.78
2023-09-28T20:38:49.221Z,4.32
2023-09-28T20:41:17.051Z,4.63
2023-09-28T20:43:44.895Z,4.85
2023-09-28T20:46:18.048Z,5.03
2023-09-28T20:48:46.343Z,5.47
2023-09-28T20:51:15.367Z,5.70
2023-09-28T20:53:43.314Z,5.90
2023-09-28T20:56:15.457Z,5.18
2023-09-28T20:58:44.004Z,5.78
2023-09-28T21:01:12.078Z,5.53
2023-09-28T21:03:41.561Z,5.57
2023-09-28T21:06:11.453Z,5.55
2023-09-28T21:08:40.655Z,5.53
2023-09-28T21:11:08.714Z,6.00
2023-09-28T21:13:36.564Z,5.60
2023-09-28T21:16:04.588Z,5.50
2023-09-28T21:18:32.682Z,4.75
2023-09-28T21:21:01.974Z,5.75
2023-09-28T21:23:29.886Z,5.03
2023-09-28T21:25:57.739Z,4.47
2023-09-28T21:28:25.584Z,5.35
2023-09-28T21:30:53.368Z,4.55
2023-09-28T21:33:21.337Z,5.30
2023-09-28T21:35:49.269Z,5.03
2023-09-28T21:38:18.507Z,5.38
2023-09-28T21:40:46.373Z,4.50
2023-09-28T21:43:14.172Z,4.93
2023-09-28T21:45:42.014Z,4.63
2023-09-28T21:48:09.891Z,4.63
2023-09-28T21:50:37.813Z,4.95
2023-09-28T21:53:06.009Z,4.82
2023-09-28T21:55:35.179Z,4.78
2023-09-28T21:58:03.004Z,4.82
2023-09-28T22:00:36.644Z,4.82
2023-09-28T22:06:36.085Z,4.70
2023-09-28T22:09:06.387Z,4.50
2023-09-28T22:11:34.573Z,4.97
2023-09-28T22:14:03.038Z,4.45
2023-09-28T22:16:30.989Z,4.68
2023-09-28T22:18:59.114Z,4.60
2023-09-28T22:21:27.532Z,4.65
2023-09-28T22:23:57.280Z,4.32
2023-09-28T22:26:25.225Z,4.95
2023-09-28T22:28:53.260Z,5.22
2023-09-28T22:31:21.290Z,5.28
2023-09-28T22:33:49.222Z,5.07
2023-09-28T22:36:17.036Z,4.63
2023-09-28T22:38:45.133Z,5.05
2023-09-28T22:41:16.867Z,4.88
2023-09-28T22:43:44.911Z,5.67
2023-09-28T22:46:12.772Z,5.05
2023-09-28T22:48:40.686Z,4.38
2023-09-28T22:51:08.510Z,4.97
2023-09-28T22:53:36.987Z,4.60
2023-09-28T22:56:04.890Z,4.93
2023-09-28T22:58:34.121Z,4.18
2023-09-28T23:01:01.936Z,4.93
2023-09-28T23:03:29.894Z,4.90
2023-09-28T23:05:57.787Z,5.07
2023-09-28T23:08:25.677Z,5.00
2023-09-28T23:10:55.345Z,4.60
2023-09-28T23:13:23.197Z,4.85
2023-09-28T23:15:52.392Z,4.78
2023-09-28T23:18:20.306Z,4.57
2023-09-28T23:20:48.220Z,5.43
2023-09-28T23:23:16.855Z,4.72
2023-09-28T23:25:44.872Z,5.07
2023-09-28T23:28:12.693Z,5.00
2023-09-28T23:30:40.809Z,4.65
2023-09-28T23:33:10.293Z,5.20
2023-09-28T23:35:38.877Z,5.28
2023-09-28T23:38:07.931Z,5.18
2023-09-28T23:40:35.778Z,4.82
2023-09-28T23:43:03.885Z,4.63
2023-09-28T23:45:35.184Z,4.90
2023-09-28T23:48:05.494Z,4.53
2023-09-28T23:50:35.911Z,4.18
2023-09-28T23:53:06.450Z,4.95
2023-09-28T23:55:35.177Z,4.90
2023-09-28T23:58:03.510Z,5.18
